This is the latest recevied weather packets stored in our database for station/object IW1QLH-13. If no packets are shown the sender has not sent any weather packets the latest 10 day(s).
| Time | Temp. | Humidity | Pressure | Rain* | Wind** | Luminosity | Snow |
|---|---|---|---|---|---|---|---|
| 1777746322 | 17.78° C | 54% | 1013.5 hPa | - | - | 14 W/m² | - |
| 1777745692 | 17.78° C | 51% | 1013.6 hPa | - | - | 14 W/m² | - |
| 1777744432 | 17.78° C | 53% | 1013.8 hPa | - | - | 28 W/m² | - |
| 1777740639 | 18.89° C | 44% | 1014 hPa | - | - | 128 W/m² | - |
| 1777739378 | 18.89° C | 45% | 1014.3 hPa | - | - | 200 W/m² | - |
| 1777738747 | 20° C | 44% | 1014.3 hPa | - | - | 243 W/m² | - |
| 1777738114 | 20° C | 42% | 1014.5 hPa | - | - | 343 W/m² | - |
| 1777736221 | 20.56° C | 40% | 1014.7 hPa | - | - | 414 W/m² | - |
| 1777735591 | 21.67° C | 37% | 1014.9 hPa | - | - | 457 W/m² | - |
| 1777734961 | 21.67° C | 39% | 1014.8 hPa | - | - | 529 W/m² | - |
| 1777734331 | 22.78° C | 36% | 1015 hPa | - | - | 614 W/m² | - |
| 1777733700 | 21.67° C | 38% | 1015.2 hPa | - | - | 657 W/m² | - |
| 1777733069 | 22.78° C | 38% | 1015.2 hPa | - | - | 643 W/m² | - |
| 1777732438 | 21.67° C | 39% | 1015.4 hPa | - | - | 657 W/m² | - |
| 1777731808 | 21.67° C | 38% | 1015.5 hPa | - | - | 629 W/m² | - |
| 1777731178 | 20.56° C | 40% | 1015.8 hPa | - | - | 657 W/m² | - |
| 1777729918 | 21.67° C | 37% | 1016.2 hPa | - | - | 672 W/m² | - |
| 1777729288 | 21.67° C | 35% | 1016.3 hPa | - | - | 715 W/m² | - |
| 1777728656 | 21.67° C | 35% | 1016.3 hPa | - | - | 786 W/m² | - |
| 1777728025 | 22.78° C | 35% | 1016.4 hPa | - | - | 900 W/m² | - |
| 1777727394 | 22.78° C | 32% | 1016.5 hPa | - | - | 943 W/m² | - |
| 1777726764 | 22.78° C | 30% | 1016.6 hPa | - | - | 972 W/m² | - |
| 1777726134 | 22.78° C | 34% | 1016.7 hPa | - | - | 972 W/m² | - |
| 1777725504 | 22.78° C | 32% | 1016.7 hPa | - | - | 972 W/m² | - |
| 1777724874 | 22.78° C | 32% | 1016.8 hPa | - | - | 972 W/m² | - |
* Rain since midnight (hover to see other rain measurements)
** Current wind speed in m/s (hover to see current wind gust speed)